Irfan Turuc

Scout - Fenerbahce
23 Apr 2028
Sonntag
Verarbeitung

Persönlichkeit

Anpassungsfähigkeit (11) Ehrgeiz (4) Kontroverse (5) Loyalität (3) Druck (8) Professionalität (12) Fairness (1) Temperament (13)

Profil

Trainerstil Demokratisch
Lizenz Kontinentale C
Entschlossenheit 10
Menschenführung 8
Motivation 14
Disziplin 7
Arbeitszufriedenheit
100%
Ermüdung
0%
Rolle Scout
Gehalt 102.8K p/W
Vertrag 14.03.2030

Leistung

Verhalten Gut
Trainingseffektivität
55%
Spielerentwicklung
70%
Verletzungsprävention
50%
Taktische Umsetzung
50%

Letzte Ereignisse

Nahm an einer Scouting-Besprechung teil jetzt
Nahm an einer Scouting-Besprechung teil 7T her
Nahm an einer Scouting-Besprechung teil 7T her
Empfahl ein Transferziel 7T her
Nahm an einer Scouting-Besprechung teil 14T her
Nahm an einer Scouting-Besprechung teil 14T her
Empfahl ein Transferziel 14T her
Empfahl ein Transferziel 21T her

Aktuell beobachtet

73
Spieler Verein Status Fähigkeit Vertrauen Beobachtet Zuletzt beobachtet Letzte Stimme
Bertuğ Yıldırım Basaksehir Bericht bereit 128 / 122 62% 1 31.01.2028 -
Ömer Ali Şahiner Basaksehir Aktiv 123 / 123 62% 1 24.01.2028 Befürworten
Obed Nkambadio Paris FC Aktiv 136 / 130 40% 1 07.01.2028 -
Martin Ødegaard Arsenal Aktiv 175 / 179 40% 1 31.12.2027 -
Nobel Mendy Hull City Aktiv 126 / 137 40% 4 01.06.2027 -
Khéphren Thuram Juventus Aktiv 153 / 166 40% 2 01.06.2027 -
Zion Suzuki Aston Villa Aktiv 136 / 145 40% 6 27.05.2027 -
Marvin Keller Chelsea Verhandlung 139 / 157 40% 5 27.05.2027 -
Adam Wharton Crystal Palace Aktiv 154 / 148 40% 3 26.05.2027 -
Ousmane Diomande Nottingham Forest Aktiv 156 / 167 40% 4 26.05.2027 -
Aaron Hickey Brentford Aktiv 159 / 142 40% 5 25.05.2027 -
Habib Diarra Sunderland Aktiv 125 / 140 40% 5 25.05.2027 -
Alex Scott Bournemouth Aktiv 160 / 143 40% 4 25.05.2027 -
Matthijs de Ligt Manchester United Aktiv 164 / 169 40% 2 25.05.2027 -
James Trafford Leeds United Aktiv 149 / 158 40% 4 24.05.2027 -
Juanlu Bournemouth Aktiv 136 / 152 40% 7 23.05.2027 -
Jarrad Branthwaite Everton Aktiv 148 / 153 40% 6 20.05.2027 -
Evan N'Dicka AS Roma Aktiv 157 / 160 40% 2 20.05.2027 -
Lewis Hall Newcastle United Aktiv 150 / 153 40% 4 18.05.2027 -
Nico González Newcastle United Aktiv 162 / 158 40% 3 18.05.2027 -
Jacob Greaves Ipswich Town Aktiv 129 / 140 40% 1 13.05.2027 -
Curtis Jones Inter Aktiv 142 / 147 40% 2 11.05.2027 -
Nathan Collins Brentford Aktiv 138 / 134 40% 1 08.05.2027 -
Kobbie Mainoo Manchester United Aktiv 161 / 148 40% 4 07.05.2027 -
Max Johnston Derby County Aktiv 136 / 125 40% 1 06.05.2027 -
André Wolverhampton Aktiv 129 / 152 40% 1 05.05.2027 -
Edoardo Bove Watford Aktiv 116 / 127 40% 1 05.05.2027 -
Pedro Porro Tottenham Aktiv 138 / 145 40% 1 03.05.2027 -
Jacques Ekomié Wrexham Aktiv 126 / 143 40% 2 02.05.2027 -
Lewis Ferguson Bologna Aktiv 136 / 135 40% 1 02.05.2027 -
Keane Lewis-Potter Brentford Aktiv 135 / 136 40% 2 01.05.2027 -
Wesley Fofana Chelsea Aktiv 150 / 169 40% 2 28.04.2027 -
Ryan Sessegnon Fulham Aktiv 156 / 138 40% 1 28.04.2027 -
Quinten Timber Crystal Palace Aktiv 161 / 144 40% 2 27.04.2027 -
Yehor Yarmoliuk Brentford Aktiv 163 / 155 40% 5 25.04.2027 -
Adis Jašić Zamalek Aktiv 134 / 120 40% 1 25.04.2027 -
Festy Ebosele Basaksehir Aktiv 136 / 130 40% 3 24.04.2027 -
Ethan Ampadu Leeds United Aktiv 142 / 157 40% 1 24.04.2027 -
Maxence Lacroix Chelsea Aktiv 164 / 155 40% 2 20.04.2027 -
Ronnie Edwards Queens Park Rangers Aktiv 119 / 132 40% 1 17.04.2027 -
Raoul Bellanova Atalanta Aktiv 164 / 163 40% 1 16.04.2027 -
James Garner Everton Aktiv 143 / 142 40% 3 14.04.2027 -
Nuno Tavares Lazio Aktiv 132 / 130 40% 2 14.04.2027 -
Noah Sadiki Sunderland Aktiv 153 / 153 40% 2 12.04.2027 -
Shea Charles Southampton Aktiv 149 / 143 40% 1 05.04.2027 -
Óscar Mingueza Crystal Palace Aktiv 157 / 158 40% 1 04.04.2027 -
Florentino Luís Ipswich Town Aktiv 128 / 144 40% 1 02.04.2027 -
Jake O'Brien Everton Aktiv 133 / 143 40% 1 01.04.2027 -
Bosun Lawal Stoke City Aktiv 110 / 124 40% 1 21.03.2027 -
Elliot Anderson Manchester City Aktiv 169 / 151 40% 4 20.03.2027 -
Diego Gómez Brighton Aktiv 138 / 144 40% 1 12.03.2027 -
Toby Collyer West Bromwich Albion Aktiv 119 / 121 40% 1 03.03.2027 -
Dennis Cirkin Queens Park Rangers Aktiv 115 / 120 40% 1 24.02.2027 -
Ian Maatsen Aston Villa Aktiv 145 / 138 40% 2 21.02.2027 -
Cheick Oumar Souaré Viktoria Plzen Aktiv 133 / 118 40% 1 01.02.2027 -
Matvey Kislyak CSKA Moscow Aktiv 135 / 138 40% 1 16.12.2026 -
Jorrel Hato Chelsea Aktiv 154 / 163 40% 1 13.12.2026 -
Stanislav Agkatsev Brentford Aktiv 121 / 146 40% 7 11.12.2026 Beobachten
Radek Vítek Middlesbrough Aktiv 116 / 130 40% 3 04.12.2026 -
Ollie Scarles West Ham United Aktiv 129 / 121 40% 1 02.12.2026 -
Cam Bragg West Ham United Aktiv 102 / 115 40% 1 28.11.2026 -
David Ozoh Derby County Aktiv 121 / 141 40% 2 19.11.2026 -
Louis Leroux FC Nantes Aktiv 131 / 127 40% 2 04.11.2026 -
Sergi Domínguez Dinamo Zagreb Aktiv 132 / 134 40% 2 30.10.2026 -
Philippe Ndinga Philadelphia Union Aktiv 119 / 121 40% 2 26.10.2026 -
Agustín Medina Lanús Aktiv 109 / 122 40% 1 22.10.2026 -
Morrison Agyemang Charlotte Football Club Aktiv 130 / 136 40% 1 17.10.2026 -
Mbekezeli Mbokazi Chicago Fire Aktiv 131 / 131 40% 1 16.10.2026 -
Matteo Pérez Vinlöf Dinamo Zagreb Aktiv 125 / 128 40% 1 30.09.2026 -
Musab Al-Juwayr Al-Qadisiyah Aktiv 132 / 136 40% 1 17.08.2026 -
Christopher Opéri Basaksehir Aktiv 127 / 128 55% 1 03.08.2026 -
Giovani Lo Celso Betis Aktiv 137 / 135 40% 1 01.08.2026 -
Christian Pulisic AC Milan Aktiv 175 / 164 40% 1 01.08.2026 -